Time;durP1;ratioP1;P1;durP2;ratioP2;P2;SDS_P1;SDS_P2;PMS_P1;PMS_P2;Temp;Humidity;BMP_temperature;BMP_pressure;BME280_temperature;BME280_humidity;BME280_pressure;Samples;Min_cycle;Max_cycle;Signal;HPM_P1;HPM_P2
2021/04/18 00:00:19;;;;;;;3.50;2.30;;;10.20;63.40;10.30;99663.00;;;;343432;28;84364;-88
2021/04/18 00:00:31;;;;;;;5.45;2.63;;;10.20;63.50;10.30;99657.00;;;;344479;28;91227;-88
2021/04/18 00:00:42;;;;;;;5.70;2.55;;;10.20;63.60;10.30;99660.00;;;;344751;28;84389;-88
2021/04/18 00:00:54;;;;;;;4.68;2.28;;;10.10;63.50;10.20;99651.00;;;;341546;28;92365;-88
2021/04/18 00:01:06;;;;;;;5.22;2.58;;;10.10;63.60;10.30;99649.00;;;;343340;28;85209;-88
2021/04/18 00:01:17;;;;;;;4.47;2.65;;;10.10;63.60;10.30;99652.00;;;;342821;28;92755;-89
2021/04/18 00:01:29;;;;;;;3.92;2.70;;;10.10;63.50;10.20;99656.00;;;;341834;28;85403;-89
2021/04/18 00:01:40;;;;;;;3.88;2.38;;;10.20;63.60;10.20;99656.00;;;;342726;28;92397;-89
2021/04/18 00:01:51;;;;;;;4.18;2.55;;;10.10;63.60;10.30;99652.00;;;;342098;28;83438;-89
2021/04/18 00:02:03;;;;;;;3.58;2.30;;;10.10;63.50;10.20;99655.00;;;;343864;28;88604;-89
2021/04/18 00:02:15;;;;;;;3.95;2.10;;;10.10;63.50;10.20;99652.00;;;;341607;28;84471;-89
2021/04/18 00:02:28;;;;;;;4.70;2.25;;;10.10;63.60;10.10;99651.00;;;;344196;28;91772;-88
2021/04/18 00:02:40;;;;;;;5.10;2.53;;;10.10;63.70;10.10;99650.00;;;;344363;28;84332;-88
2021/04/18 00:02:52;;;;;;;5.05;2.60;;;10.10;63.60;10.20;99645.00;;;;340024;28;93043;-88
2021/04/18 00:03:04;;;;;;;5.63;2.72;;;10.10;63.80;10.20;99653.00;;;;342935;28;84143;-89
2021/04/18 00:03:15;;;;;;;7.55;3.20;;;10.10;63.80;10.20;99649.00;;;;339990;28;91555;-90
2021/04/18 00:03:26;;;;;;;6.60;3.10;;;10.10;63.90;10.30;99649.00;;;;340374;28;83561;-89
2021/04/18 00:03:38;;;;;;;6.75;3.05;;;10.10;63.80;10.10;99652.00;;;;341352;28;92605;-89
2021/04/18 00:03:50;;;;;;;6.63;2.53;;;10.10;63.90;10.00;99647.00;;;;341650;28;85495;-89
2021/04/18 00:04:03;;;;;;;7.05;2.92;;;10.10;63.90;10.20;99653.00;;;;342612;28;91830;-88
2021/04/18 00:04:15;;;;;;;6.05;2.53;;;10.10;63.80;10.20;99640.00;;;;343001;28;85172;-89
2021/04/18 00:04:26;;;;;;;3.72;2.05;;;10.10;63.90;10.20;99647.00;;;;342731;28;91469;-89
2021/04/18 00:04:39;;;;;;;2.95;1.80;;;10.10;63.80;10.10;99649.00;;;;342799;28;83611;-89
2021/04/18 00:04:50;;;;;;;3.05;1.90;;;10.10;63.80;10.20;99655.00;;;;342813;28;91985;-89
2021/04/18 00:05:01;;;;;;;3.40;2.20;;;10.10;63.70;10.20;99652.00;;;;344565;28;83309;-91
2021/04/18 00:05:14;;;;;;;3.90;2.20;;;10.10;63.70;10.20;99648.00;;;;340969;28;93646;-90
2021/04/18 00:05:27;;;;;;;4.38;2.60;;;10.10;63.80;10.20;99645.00;;;;341765;28;85235;-88
2021/04/18 00:05:39;;;;;;;4.78;2.53;;;10.10;63.80;10.30;99647.00;;;;342636;28;88308;-88
2021/04/18 00:05:50;;;;;;;4.47;2.55;;;10.10;63.80;10.30;99653.00;;;;342828;28;83464;-89
2021/04/18 00:06:02;;;;;;;4.03;2.78;;;10.10;63.80;10.20;99649.00;;;;341423;28;88751;-90
2021/04/18 00:06:13;;;;;;;3.85;2.90;;;10.10;63.80;10.20;99652.00;;;;342988;28;85499;-88
2021/04/18 00:06:25;;;;;;;3.83;2.85;;;10.10;63.70;10.20;99653.00;;;;342675;28;92193;-88
2021/04/18 00:06:38;;;;;;;3.13;2.45;;;10.10;63.60;10.20;99650.00;;;;342952;28;82557;-88
2021/04/18 00:06:49;;;;;;;3.50;2.35;;;10.10;63.60;10.20;99651.00;;;;342763;28;91260;-88
2021/04/18 00:07:00;;;;;;;4.30;2.63;;;10.10;63.70;10.30;99650.00;;;;343036;28;85291;-89
2021/04/18 00:07:13;;;;;;;4.13;2.70;;;10.10;63.70;10.30;99652.00;;;;342586;28;90177;-88
2021/04/18 00:07:24;;;;;;;4.30;2.67;;;10.10;63.70;10.20;99647.00;;;;343032;28;83539;-89
2021/04/18 00:07:35;;;;;;;4.78;2.65;;;10.10;63.70;10.20;99644.00;;;;342694;28;89527;-88
2021/04/18 00:07:48;;;;;;;4.57;2.72;;;10.10;63.80;10.30;99648.00;;;;341120;28;83657;-89
2021/04/18 00:08:02;;;;;;;5.05;2.63;;;10.10;63.80;10.20;99650.00;;;;338573;28;92091;-89
2021/04/18 00:08:14;;;;;;;5.57;2.78;;;10.10;64.00;10.30;99650.00;;;;342863;28;83501;-89
2021/04/18 00:08:28;;;;;;;4.78;2.47;;;10.10;64.50;10.30;99646.00;;;;341372;28;92891;-89
2021/04/18 00:08:39;;;;;;;3.97;2.40;;;10.10;63.70;10.20;99644.00;;;;342665;28;85294;-89
2021/04/18 00:08:51;;;;;;;4.30;2.74;;;10.20;63.70;10.30;99649.00;;;;342717;28;89700;-88
2021/04/18 00:09:08;;;;;;;4.70;2.85;;;10.10;63.60;10.30;99645.00;;;;341743;28;83409;-89
2021/04/18 00:09:19;;;;;;;3.65;2.33;;;10.10;63.70;10.30;99650.00;;;;341283;28;89962;-89
2021/04/18 00:09:32;;;;;;;3.50;2.20;;;10.10;63.80;10.20;99640.00;;;;343249;28;83280;-88
2021/04/18 00:09:44;;;;;;;3.58;2.30;;;10.20;63.80;10.20;99645.00;;;;345446;28;91605;-90
2021/04/18 00:09:55;;;;;;;3.92;2.40;;;10.10;64.30;10.20;99646.00;;;;343079;28;83463;-89
2021/04/18 00:10:08;;;;;;;3.78;2.20;;;10.10;63.60;10.20;99646.00;;;;345397;28;92701;-89
2021/04/18 00:10:20;;;;;;;4.75;2.45;;;10.10;63.70;10.30;99655.00;;;;340274;28;85308;-88
2021/04/18 00:10:34;;;;;;;4.00;2.35;;;10.10;63.70;10.30;99647.00;;;;341365;28;92553;-89
2021/04/18 00:10:45;;;;;;;3.38;2.30;;;10.10;63.70;10.20;99649.00;;;;344408;28;84375;-88
2021/04/18 00:10:56;;;;;;;3.45;2.53;;;10.10;63.60;10.20;99638.00;;;;343664;28;91714;-89
2021/04/18 00:11:08;;;;;;;3.30;2.45;;;10.10;63.70;10.20;99643.00;;;;342552;28;85408;-89
2021/04/18 00:11:20;;;;;;;3.70;2.35;;;10.10;64.30;10.10;99641.00;;;;342704;28;88861;-89
2021/04/18 00:11:31;;;;;;;4.03;2.47;;;10.10;63.80;10.20;99649.00;;;;341597;28;82748;-88
2021/04/18 00:11:43;;;;;;;3.53;2.22;;;10.10;63.90;10.30;99647.00;;;;343951;28;92292;-88
2021/04/18 00:11:54;;;;;;;3.05;2.30;;;10.10;63.90;10.20;99643.00;;;;343070;28;84042;-89
2021/04/18 00:12:06;;;;;;;4.28;2.58;;;10.10;63.80;10.20;99646.00;;;;345387;28;92480;-89
2021/04/18 00:12:18;;;;;;;5.15;3.05;;;10.10;63.80;10.20;99649.00;;;;342927;28;84398;-89
2021/04/18 00:12:29;;;;;;;3.85;2.72;;;10.10;63.80;10.10;99641.00;;;;342899;28;87987;-88
2021/04/18 00:12:40;;;;;;;3.50;2.65;;;10.10;63.90;10.20;99646.00;;;;344382;28;83892;-89
2021/04/18 00:12:52;;;;;;;3.67;2.40;;;10.10;64.00;10.30;99645.00;;;;341287;28;92015;-89
2021/04/18 00:13:04;;;;;;;4.15;2.55;;;10.10;64.00;10.10;99643.00;;;;341666;28;84390;-91
2021/04/18 00:13:15;;;;;;;4.82;2.60;;;10.10;64.70;10.10;99644.00;;;;343846;28;92120;-89
2021/04/18 00:13:27;;;;;;;4.45;2.75;;;10.10;64.10;10.10;99650.00;;;;344598;28;82432;-88
2021/04/18 00:13:38;;;;;;;4.65;2.92;;;10.10;64.00;10.10;99637.00;;;;345193;28;91626;-89
2021/04/18 00:13:50;;;;;;;4.65;2.90;;;10.10;64.00;10.00;99652.00;;;;346620;28;83701;-89
2021/04/18 00:14:03;;;;;;;4.25;2.67;;;10.00;64.00;10.00;99640.00;;;;342766;28;88779;-90
2021/04/18 00:14:16;;;;;;;4.18;2.40;;;10.00;63.90;10.10;99640.00;;;;340191;28;85670;-88
2021/04/18 00:14:27;;;;;;;3.80;2.55;;;10.00;64.10;10.10;99637.00;;;;341465;28;89516;-88
2021/04/18 00:14:38;;;;;;;3.72;2.55;;;10.00;64.10;10.20;99644.00;;;;343788;28;84751;-89
2021/04/18 00:14:50;;;;;;;3.92;2.78;;;10.00;64.10;10.10;99639.00;;;;344041;28;91494;-89
2021/04/18 00:15:02;;;;;;;4.88;2.97;;;10.00;64.00;10.10;99639.00;;;;343042;28;84917;-90
2021/04/18 00:15:14;;;;;;;4.97;3.20;;;10.00;64.10;10.20;99643.00;;;;339845;28;92885;-91
2021/04/18 00:15:26;;;;;;;6.72;3.33;;;10.00;64.10;10.20;99645.00;;;;341752;28;84094;-89
2021/04/18 00:15:40;;;;;;;6.05;3.05;;;10.00;64.20;10.30;99645.00;;;;340022;28;91748;-91
2021/04/18 00:15:52;;;;;;;4.07;2.55;;;10.00;64.10;10.20;99638.00;;;;340174;28;85533;-89
2021/04/18 00:16:04;;;;;;;3.92;2.67;;;10.00;64.70;10.10;99637.00;;;;341369;28;91325;-89
2021/04/18 00:16:17;;;;;;;4.00;2.78;;;10.00;64.00;10.00;99640.00;;;;343039;28;85051;-89
2021/04/18 00:16:29;;;;;;;4.28;2.83;;;10.00;63.90;10.20;99646.00;;;;342616;28;91345;-88
2021/04/18 00:16:40;;;;;;;4.15;2.58;;;10.00;63.90;10.20;99646.00;;;;341793;28;83729;-90
2021/04/18 00:16:55;;;;;;;3.72;2.30;;;10.00;64.00;10.20;99645.00;;;;342023;28;87100;-88
2021/04/18 00:17:06;;;;;;;4.20;2.45;;;10.00;64.00;10.20;99633.00;;;;342749;28;83632;-89
2021/04/18 00:17:18;;;;;;;3.92;2.20;;;10.10;64.00;10.10;99642.00;;;;342407;28;91623;-90
2021/04/18 00:17:30;;;;;;;4.07;2.28;;;10.00;64.00;10.20;99637.00;;;;342987;28;83800;-89
2021/04/18 00:17:41;;;;;;;3.45;2.20;;;10.00;64.00;10.10;99636.00;;;;344055;28;92451;-88
2021/04/18 00:17:53;;;;;;;3.10;2.00;;;10.00;64.10;10.20;99631.00;;;;341636;28;83687;-88
2021/04/18 00:18:06;;;;;;;3.53;2.25;;;10.00;64.10;10.20;99636.00;;;;341417;28;90396;-89
2021/04/18 00:18:18;;;;;;;3.80;2.78;;;10.00;64.20;10.30;99644.00;;;;340353;28;86015;-89
2021/04/18 00:18:30;;;;;;;3.80;2.85;;;10.00;64.20;10.10;99634.00;;;;341343;28;92402;-89
2021/04/18 00:18:41;;;;;;;3.65;2.42;;;10.00;64.30;10.00;99635.00;;;;342914;28;83519;-89
2021/04/18 00:18:52;;;;;;;3.70;2.22;;;10.00;64.20;10.00;99635.00;;;;341349;28;92760;-88
2021/04/18 00:19:04;;;;;;;3.80;2.40;;;10.00;64.20;10.10;99634.00;;;;341576;28;83581;-88
2021/04/18 00:19:16;;;;;;;4.82;2.70;;;10.00;64.10;10.20;99641.00;;;;342544;28;92476;-88
2021/04/18 00:19:27;;;;;;;4.82;2.63;;;10.00;64.10;10.20;99638.00;;;;342792;28;84122;-89
2021/04/18 00:19:39;;;;;;;3.95;2.45;;;10.00;64.00;10.20;99640.00;;;;342510;28;92734;-88
2021/04/18 00:19:50;;;;;;;3.42;2.22;;;10.00;64.00;10.10;99635.00;;;;344270;28;85430;-89
2021/04/18 00:20:07;;;;;;;4.50;2.25;;;10.00;64.10;10.20;99647.00;;;;344101;28;89689;-90
2021/04/18 00:20:19;;;;;;;5.90;2.70;;;10.00;64.30;10.20;99632.00;;;;343017;28;84695;-90
2021/04/18 00:20:30;;;;;;;5.53;2.85;;;10.00;64.30;10.20;99627.00;;;;342569;28;90014;-89
2021/04/18 00:20:41;;;;;;;4.70;2.60;;;10.00;64.20;10.20;99635.00;;;;344289;28;85260;-88
2021/04/18 00:20:53;;;;;;;4.40;2.88;;;10.00;64.10;10.20;99628.00;;;;341367;28;90689;-91
2021/04/18 00:21:04;;;;;;;3.42;2.47;;;10.00;64.10;10.30;99637.00;;;;341776;28;83808;-89
2021/04/18 00:21:16;;;;;;;4.50;2.90;;;10.00;64.10;10.20;99632.00;;;;339864;28;92533;-89
2021/04/18 00:21:27;;;;;;;4.57;2.75;;;10.00;64.10;10.10;99633.00;;;;340400;28;83648;-89
2021/04/18 00:21:39;;;;;;;4.72;2.97;;;10.00;64.10;10.20;99645.00;;;;338765;28;89143;-89
2021/04/18 00:21:50;;;;;;;4.28;2.80;;;10.00;63.90;10.10;99635.00;;;;340336;28;85795;-89
2021/04/18 00:22:02;;;;;;;4.78;2.78;;;10.00;64.00;10.10;99632.00;;;;340089;28;88281;-89
2021/04/18 00:22:13;;;;;;;4.35;2.70;;;10.00;64.00;10.10;99640.00;;;;341658;28;85247;-89
2021/04/18 00:22:25;;;;;;;5.05;2.65;;;10.00;64.00;10.10;99639.00;;;;340148;28;89643;-89
2021/04/18 00:22:38;;;;;;;4.78;2.90;;;10.00;64.10;10.10;99633.00;;;;341873;28;83363;-89
2021/04/18 00:22:50;;;;;;;5.10;3.08;;;10.00;64.00;10.20;99639.00;;;;344592;28;90765;-89
2021/04/18 00:23:01;;;;;;;5.50;2.97;;;10.00;64.00;10.20;99641.00;;;;343052;28;83422;-89
2021/04/18 00:23:13;;;;;;;6.18;2.90;;;10.00;64.10;10.10;99627.00;;;;342299;28;90359;-88
2021/04/18 00:23:24;;;;;;;6.22;2.72;;;10.00;64.00;10.10;99632.00;;;;340478;28;82367;-88
2021/04/18 00:23:35;;;;;;;5.55;2.60;;;10.00;63.90;10.20;99631.00;;;;344084;28;90821;-89
2021/04/18 00:23:48;;;;;;;4.55;2.47;;;10.00;64.00;10.20;99636.00;;;;343071;28;83356;-89
2021/04/18 00:23:59;;;;;;;4.13;2.38;;;10.00;64.00;10.10;99639.00;;;;342565;28;88409;-89
2021/04/18 00:24:11;;;;;;;4.25;2.50;;;10.00;64.00;10.20;99639.00;;;;344469;28;83459;-90
2021/04/18 00:24:22;;;;;;;4.57;2.92;;;10.00;64.00;10.10;99631.00;;;;342779;28;91399;-88
2021/04/18 00:24:34;;;;;;;4.22;2.83;;;10.00;64.00;10.00;99638.00;;;;342848;28;83825;-89
2021/04/18 00:24:45;;;;;;;4.10;2.70;;;10.00;64.00;10.00;99633.00;;;;341199;28;89865;-88
2021/04/18 00:24:56;;;;;;;4.00;2.60;;;10.00;64.00;10.10;99632.00;;;;341600;28;84467;-89
2021/04/18 00:25:10;;;;;;;3.78;2.42;;;10.00;64.00;10.20;99633.00;;;;342564;28;92972;-89
2021/04/18 00:25:21;;;;;;;3.20;2.35;;;10.00;64.10;10.20;99626.00;;;;341703;28;84920;-88
2021/04/18 00:25:34;;;;;;;4.05;2.60;;;10.00;64.20;10.20;99637.00;;;;342511;28;91146;-88
2021/04/18 00:25:46;;;;;;;4.38;2.65;;;10.00;64.10;10.20;99632.00;;;;345484;28;84449;-88
2021/04/18 00:25:57;;;;;;;4.22;2.55;;;10.00;64.10;10.30;99633.00;;;;343896;28;91633;-89
2021/04/18 00:26:09;;;;;;;3.78;2.45;;;10.00;64.10;10.30;99627.00;;;;342422;28;83676;-89
2021/04/18 00:26:21;;;;;;;3.65;2.58;;;10.00;64.10;10.20;99636.00;;;;342695;28;91212;-88
2021/04/18 00:26:32;;;;;;;3.53;2.47;;;10.00;64.20;10.30;99632.00;;;;344364;28;84301;-88
2021/04/18 00:26:44;;;;;;;4.05;2.70;;;10.00;64.80;10.30;99634.00;;;;342598;28;91208;-89
2021/04/18 00:26:55;;;;;;;4.68;2.70;;;10.00;64.10;10.30;99625.00;;;;342914;28;84321;-89
2021/04/18 00:27:08;;;;;;;4.47;2.70;;;10.00;64.10;10.40;99631.00;;;;344069;28;92730;-88
2021/04/18 00:27:19;;;;;;;4.25;2.58;;;10.10;64.10;10.30;99632.00;;;;341589;28;85328;-89
2021/04/18 00:27:31;;;;;;;3.92;2.67;;;10.10;64.00;10.40;99632.00;;;;341318;28;91898;-89
2021/04/18 00:27:43;;;;;;;3.83;2.53;;;10.10;64.00;10.40;99634.00;;;;341802;28;82330;-89
2021/04/18 00:27:54;;;;;;;4.13;2.47;;;10.10;64.00;10.40;99634.00;;;;342544;28;92796;-89
2021/04/18 00:28:06;;;;;;;4.40;2.72;;;10.10;64.00;10.40;99625.00;;;;344444;28;84986;-88
2021/04/18 00:28:17;;;;;;;5.00;2.88;;;10.10;64.00;10.30;99626.00;;;;342497;28;90872;-89
2021/04/18 00:28:30;;;;;;;5.25;2.80;;;10.10;64.00;10.20;99627.00;;;;345760;28;84527;-89
2021/04/18 00:28:41;;;;;;;4.28;2.33;;;10.10;64.10;10.30;99627.00;;;;342489;28;92070;-88
2021/04/18 00:28:52;;;;;;;3.45;2.50;;;10.10;64.60;10.30;99616.00;;;;344440;28;85245;-89
2021/04/18 00:29:04;;;;;;;4.03;2.70;;;10.10;63.90;10.40;99626.00;;;;341283;28;93537;-89
2021/04/18 00:29:15;;;;;;;4.80;3.00;;;10.10;63.90;10.30;99626.00;;;;342920;28;84664;-89
2021/04/18 00:29:26;;;;;;;4.28;2.63;;;10.10;63.90;10.30;99624.00;;;;342708;28;93174;-89
2021/04/18 00:29:38;;;;;;;4.00;2.94;;;10.10;64.00;10.30;99625.00;;;;344346;28;84633;-89
2021/04/18 00:29:49;;;;;;;3.42;2.60;;;10.10;63.90;10.20;99625.00;;;;344033;28;91652;-89
2021/04/18 00:30:01;;;;;;;3.60;2.47;;;10.10;63.80;10.20;99633.00;;;;342990;28;83450;-89
2021/04/18 00:30:15;;;;;;;3.67;2.60;;;10.10;63.80;10.30;99629.00;;;;344093;28;91615;-88
2021/04/18 00:30:27;;;;;;;3.65;2.70;;;10.10;63.80;10.30;99627.00;;;;341729;28;83423;-89
2021/04/18 00:30:43;;;;;;;3.65;2.70;;;10.10;63.80;10.30;99626.00;;;;341309;28;90438;-88
2021/04/18 00:30:55;;;;;;;4.13;2.88;;;10.10;63.80;10.30;99626.00;;;;343069;28;83744;-88
2021/04/18 00:31:06;;;;;;;4.60;2.53;;;10.10;63.80;10.30;99622.00;;;;341126;28;92372;-90
2021/04/18 00:31:18;;;;;;;4.13;2.20;;;10.10;63.80;10.40;99619.00;;;;344289;28;85188;-89
2021/04/18 00:31:29;;;;;;;4.43;2.67;;;10.10;63.80;10.40;99630.00;;;;341361;28;92140;-88
2021/04/18 00:31:41;;;;;;;4.13;2.90;;;10.10;63.80;10.40;99619.00;;;;342993;28;85643;-90
2021/04/18 00:31:52;;;;;;;4.70;3.20;;;10.10;63.70;10.20;99622.00;;;;344046;28;91911;-89
2021/04/18 00:32:04;;;;;;;4.25;2.95;;;10.10;63.60;10.10;99621.00;;;;343041;28;85252;-89
2021/04/18 00:32:16;;;;;;;5.57;2.88;;;10.10;63.70;10.10;99623.00;;;;342757;28;91596;-89
2021/04/18 00:32:28;;;;;;;6.65;3.08;;;10.10;63.70;10.20;99622.00;;;;341543;28;83988;-89
2021/04/18 00:32:39;;;;;;;6.10;3.08;;;10.10;63.70;10.20;99619.00;;;;341264;28;89557;-89
2021/04/18 00:32:51;;;;;;;5.13;3.13;;;10.10;63.70;10.20;99634.00;;;;342997;28;84102;-89
2021/04/18 00:33:02;;;;;;;4.20;2.78;;;10.10;63.80;10.20;99626.00;;;;342672;28;91694;-89
2021/04/18 00:33:14;;;;;;;4.05;2.72;;;10.10;63.70;10.20;99624.00;;;;343008;28;84523;-88
2021/04/18 00:33:25;;;;;;;3.58;2.72;;;10.10;63.80;10.20;99623.00;;;;341202;28;91973;-89
2021/04/18 00:33:37;;;;;;;3.50;2.63;;;10.10;63.70;10.20;99622.00;;;;342893;28;83726;-89
2021/04/18 00:33:49;;;;;;;3.83;2.70;;;10.10;63.80;10.10;99625.00;;;;339997;28;92672;-89
2021/04/18 00:34:09;;;;;;;5.43;2.50;;;10.10;63.70;10.10;99628.00;;;;343007;28;85143;-88
2021/04/18 00:34:21;;;;;;;5.60;2.63;;;10.00;63.70;10.10;99630.00;;;;341296;28;92629;-89
2021/04/18 00:34:33;;;;;;;4.10;2.50;;;10.10;63.80;10.10;99617.00;;;;342964;28;83539;-90
2021/04/18 00:34:44;;;;;;;3.58;2.65;;;10.10;63.80;10.10;99619.00;;;;342513;28;91873;-89
2021/04/18 00:34:55;;;;;;;3.88;2.70;;;10.10;63.80;10.10;99624.00;;;;340420;28;82537;-90
2021/04/18 00:35:09;;;;;;;4.45;2.88;;;10.00;63.90;10.10;99624.00;;;;341201;28;93741;-90
2021/04/18 00:35:21;;;;;;;4.35;2.50;;;10.00;63.90;10.10;99621.00;;;;340301;28;84413;-90
2021/04/18 00:35:33;;;;;;;3.67;2.28;;;10.00;63.80;10.20;99624.00;;;;341421;28;92263;-89
2021/04/18 00:35:44;;;;;;;3.95;2.60;;;10.00;63.90;10.20;99623.00;;;;343370;28;84592;-89
2021/04/18 00:35:55;;;;;;;3.65;2.75;;;10.00;64.00;10.20;99623.00;;;;341173;28;88564;-90
2021/04/18 00:36:07;;;;;;;3.58;2.75;;;10.00;64.00;10.10;99620.00;;;;342948;28;83606;-89
2021/04/18 00:36:18;;;;;;;3.33;2.67;;;9.90;64.00;10.20;99626.00;;;;339934;28;91022;-89
2021/04/18 00:36:30;;;;;;;3.60;2.75;;;10.00;64.20;10.20;99620.00;;;;341759;28;84525;-89
2021/04/18 00:36:42;;;;;;;3.58;2.60;;;10.00;64.10;10.20;99618.00;;;;342681;28;90762;-90
2021/04/18 00:36:54;;;;;;;3.70;2.67;;;10.00;64.00;10.10;99616.00;;;;340383;28;84211;-89
2021/04/18 00:37:05;;;;;;;3.72;2.35;;;10.00;64.10;10.20;99623.00;;;;341176;28;91949;-89
2021/04/18 00:37:17;;;;;;;3.97;2.45;;;10.00;64.70;10.20;99621.00;;;;341725;28;84756;-89
2021/04/18 00:37:28;;;;;;;3.67;2.42;;;10.00;64.10;10.20;99618.00;;;;342770;28;89035;-88
2021/04/18 00:37:39;;;;;;;4.30;2.30;;;10.00;64.60;10.20;99611.00;;;;343152;28;82698;-89
2021/04/18 00:37:51;;;;;;;4.43;2.25;;;10.00;64.00;10.20;99620.00;;;;342408;28;93387;-89
2021/04/18 00:38:02;;;;;;;4.00;2.38;;;10.00;64.00;10.10;99616.00;;;;343132;28;82369;-90
2021/04/18 00:38:13;;;;;;;3.28;2.45;;;10.00;64.00;10.10;99622.00;;;;341431;28;88790;-89
2021/04/18 00:38:25;;;;;;;3.22;2.60;;;10.00;64.00;10.10;99608.00;;;;343054;28;83374;-89
2021/04/18 00:38:36;;;;;;;3.45;2.83;;;10.00;64.00;10.00;99620.00;;;;342542;28;88539;-90
2021/04/18 00:38:48;;;;;;;3.40;3.03;;;10.00;64.10;10.10;99621.00;;;;342810;28;85050;-89
2021/04/18 00:38:59;;;;;;;3.72;2.95;;;10.00;64.20;10.00;99610.00;;;;341269;28;92120;-89
2021/04/18 00:39:10;;;;;;;3.72;2.80;;;10.00;64.20;10.10;99617.00;;;;342966;28;83599;-89
2021/04/18 00:39:22;;;;;;;4.80;2.63;;;9.90;64.10;9.90;99615.00;;;;341372;28;92048;-89
2021/04/18 00:39:35;;;;;;;6.45;2.58;;;9.90;64.40;10.00;99620.00;;;;341636;28;84457;-89
2021/04/18 00:39:46;;;;;;;6.00;2.80;;;9.90;64.30;10.10;99620.00;;;;341224;28;91898;-88
2021/04/18 00:40:00;;;;;;;4.40;2.83;;;9.90;64.30;10.10;99624.00;;;;341705;28;84454;-89
2021/04/18 00:40:15;;;;;;;4.13;2.92;;;9.90;64.40;10.10;99625.00;;;;342727;28;91709;-89
2021/04/18 00:40:27;;;;;;;4.15;3.03;;;9.90;64.50;10.00;99625.00;;;;341738;28;84325;-89
2021/04/18 00:40:38;;;;;;;4.00;3.10;;;9.90;64.50;10.00;99624.00;;;;343747;28;92137;-90
2021/04/18 00:40:50;;;;;;;3.45;2.80;;;9.90;64.40;10.10;99618.00;;;;344337;28;84375;-88
2021/04/18 00:41:01;;;;;;;3.22;2.42;;;9.90;64.40;10.00;99630.00;;;;342479;28;91391;-89
2021/04/18 00:41:13;;;;;;;3.20;2.45;;;9.90;64.40;10.00;99615.00;;;;342971;28;83529;-89
2021/04/18 00:41:24;;;;;;;3.20;2.45;;;9.90;64.40;10.10;99616.00;;;;341478;28;90612;-89
2021/04/18 00:41:35;;;;;;;4.25;2.45;;;9.90;64.60;10.10;99621.00;;;;344414;28;84651;-89
2021/04/18 00:41:47;;;;;;;4.93;2.55;;;9.90;64.70;10.10;99617.00;;;;341349;28;91742;-90
2021/04/18 00:41:58;;;;;;;5.00;2.45;;;9.90;64.50;10.10;99611.00;;;;341492;28;85046;-90
2021/04/18 00:42:10;;;;;;;4.38;2.28;;;9.90;64.50;10.00;99612.00;;;;342766;28;92054;-88
2021/04/18 00:42:21;;;;;;;4.05;2.33;;;9.90;64.60;10.00;99616.00;;;;345838;28;84479;-88
2021/04/18 00:42:33;;;;;;;5.95;2.83;;;9.90;64.50;9.90;99625.00;;;;342561;28;88903;-88
2021/04/18 00:42:44;;;;;;;6.15;3.10;;;9.90;64.50;9.90;99623.00;;;;344185;28;84128;-89
2021/04/18 00:42:56;;;;;;;5.93;3.35;;;9.90;64.60;10.00;99628.00;;;;341229;28;91165;-90
2021/04/18 00:43:07;;;;;;;4.80;2.97;;;9.80;64.50;10.00;99617.00;;;;340358;28;83444;-88
2021/04/18 00:43:18;;;;;;;4.90;2.60;;;9.90;64.60;9.90;99620.00;;;;340003;28;92049;-89
2021/04/18 00:43:30;;;;;;;4.30;2.55;;;9.80;64.50;9.90;99615.00;;;;341789;28;83311;-89
2021/04/18 00:43:45;;;;;;;4.70;2.70;;;9.80;64.50;10.00;99618.00;;;;342651;28;90577;-89
2021/04/18 00:43:56;;;;;;;5.35;2.63;;;9.80;64.50;9.90;99613.00;;;;342736;28;83839;-89
2021/04/18 00:44:11;;;;;;;9.93;2.55;;;9.80;64.60;9.90;99612.00;;;;339984;28;89297;-89
2021/04/18 00:44:22;;;;;;;9.57;2.80;;;9.80;64.60;10.00;99614.00;;;;340340;28;83951;-88
2021/04/18 00:44:33;;;;;;;4.25;2.75;;;9.80;64.60;10.00;99616.00;;;;342501;28;89865;-89
2021/04/18 00:44:45;;;;;;;4.35;3.03;;;9.80;64.60;10.00;99612.00;;;;340307;28;84706;-90
2021/04/18 00:44:56;;;;;;;3.85;2.83;;;9.80;64.60;9.90;99612.00;;;;339977;28;92897;-89
2021/04/18 00:45:08;;;;;;;4.05;2.65;;;9.80;64.60;9.80;99616.00;;;;343076;28;85312;-88
2021/04/18 00:45:21;;;;;;;6.03;2.78;;;9.80;64.90;9.90;99614.00;;;;341332;28;92230;-88
2021/04/18 00:45:32;;;;;;;6.38;2.78;;;9.80;64.80;10.00;99612.00;;;;343091;28;84377;-89
2021/04/18 00:45:44;;;;;;;5.15;2.47;;;9.80;64.70;10.00;99612.00;;;;341253;28;92569;-89
2021/04/18 00:45:55;;;;;;;4.60;2.80;;;9.80;64.70;10.00;99619.00;;;;340467;28;82435;-89
2021/04/18 00:46:07;;;;;;;4.70;2.90;;;9.80;64.70;9.90;99610.00;;;;344161;28;90291;-88
2021/04/18 00:46:19;;;;;;;3.95;2.90;;;9.80;64.80;10.00;99611.00;;;;341798;28;83981;-88
2021/04/18 00:46:30;;;;;;;3.88;2.50;;;9.80;64.70;10.00;99611.00;;;;340850;28;92272;-90
2021/04/18 00:46:42;;;;;;;5.13;2.75;;;9.80;64.90;9.90;99612.00;;;;341730;28;84819;-88
2021/04/18 00:46:53;;;;;;;5.90;2.88;;;9.70;64.80;9.90;99610.00;;;;341250;28;93297;-90
2021/04/18 00:47:05;;;;;;;6.05;2.90;;;9.80;64.90;9.80;99620.00;;;;342934;28;82797;-88
2021/04/18 00:47:17;;;;;;;4.80;2.80;;;9.70;65.00;9.80;99614.00;;;;341367;28;92477;-89
2021/04/18 00:47:29;;;;;;;4.65;2.90;;;9.70;64.90;9.90;99613.00;;;;341761;28;84598;-88
2021/04/18 00:47:43;;;;;;;4.78;2.90;;;9.70;64.90;9.90;99614.00;;;;342653;28;92391;-88
2021/04/18 00:47:55;;;;;;;4.78;2.80;;;9.70;64.80;9.90;99614.00;;;;340417;28;83349;-89
2021/04/18 00:48:07;;;;;;;5.15;2.70;;;9.70;65.10;9.90;99608.00;;;;340174;28;89375;-88
2021/04/18 00:48:18;;;;;;;5.28;2.95;;;9.70;65.00;9.90;99617.00;;;;343156;28;83264;-88
2021/04/18 00:48:29;;;;;;;5.95;3.17;;;9.80;65.10;9.80;99612.00;;;;342837;28;91832;-89
2021/04/18 00:48:42;;;;;;;5.75;3.15;;;9.70;65.10;9.80;99618.00;;;;344376;28;84449;-89
2021/04/18 00:48:53;;;;;;;6.05;3.08;;;9.70;65.00;9.90;99611.00;;;;341046;28;92535;-89
2021/04/18 00:49:05;;;;;;;6.18;3.45;;;9.70;64.90;9.90;99613.00;;;;342871;28;83840;-88
2021/04/18 00:49:16;;;;;;;5.20;3.15;;;9.70;64.90;9.80;99613.00;;;;341300;28;92270;-89
2021/04/18 00:49:28;;;;;;;4.80;3.17;;;9.80;64.90;9.90;99605.00;;;;341433;28;83540;-89
2021/04/18 00:49:39;;;;;;;5.15;2.78;;;9.70;64.80;9.90;99614.00;;;;341301;28;91002;-88
2021/04/18 00:49:50;;;;;;;4.65;2.70;;;9.70;64.80;9.90;99612.00;;;;345544;28;82511;-90
2021/04/18 00:50:03;;;;;;;4.68;2.90;;;9.70;64.80;10.00;99609.00;;;;341458;28;89958;-88
2021/04/18 00:50:21;;;;;;;4.03;2.90;;;9.70;64.80;9.90;99616.00;;;;343093;28;83893;-89
2021/04/18 00:50:36;;;;;;;4.96;2.74;;;9.80;65.00;9.90;99606.00;;;;341360;28;91537;-89
2021/04/18 00:50:49;;;;;;;5.85;2.78;;;9.70;64.90;9.90;99612.00;;;;340347;28;85060;-89
2021/04/18 00:51:01;;;;;;;5.45;2.63;;;9.70;64.90;9.90;99611.00;;;;341298;28;92817;-89
2021/04/18 00:51:13;;;;;;;6.13;2.90;;;9.70;64.90;9.90;99602.00;;;;344232;28;83528;-89
2021/04/18 00:51:25;;;;;;;4.97;2.92;;;9.70;65.00;10.00;99621.00;;;;339842;28;91047;-89
2021/04/18 00:51:36;;;;;;;3.53;2.65;;;9.70;64.80;10.10;99606.00;;;;341665;28;84630;-89
2021/04/18 00:51:47;;;;;;;3.53;2.30;;;9.80;64.90;9.90;99610.00;;;;339975;28;92572;-89
2021/04/18 00:51:59;;;;;;;3.65;2.58;;;9.70;65.00;9.80;99609.00;;;;341669;28;84191;-88
2021/04/18 00:52:10;;;;;;;4.18;3.05;;;9.70;64.90;9.90;99608.00;;;;342708;28;92055;-88
2021/04/18 00:52:22;;;;;;;4.70;3.30;;;9.70;64.90;9.90;99612.00;;;;343086;28;84731;-90
2021/04/18 00:52:34;;;;;;;5.40;2.95;;;9.70;65.00;9.90;99607.00;;;;342268;28;91078;-89
2021/04/18 00:52:45;;;;;;;5.53;3.05;;;9.70;65.00;10.00;99604.00;;;;341110;28;84393;-88
2021/04/18 00:52:57;;;;;;;5.22;2.80;;;9.70;65.10;10.00;99609.00;;;;344000;28;90278;-89
2021/04/18 00:53:09;;;;;;;3.92;2.65;;;9.80;65.10;10.00;99614.00;;;;343104;28;83327;-88
2021/04/18 00:53:20;;;;;;;3.55;2.63;;;9.80;65.10;10.00;99616.00;;;;342670;28;90927;-88
2021/04/18 00:53:31;;;;;;;4.18;2.75;;;9.80;65.00;10.00;99619.00;;;;345819;28;84832;-88
2021/04/18 00:53:44;;;;;;;4.47;3.22;;;9.80;65.00;10.00;99611.00;;;;344060;28;92883;-89
2021/04/18 00:53:55;;;;;;;3.97;3.08;;;9.80;65.00;10.00;99606.00;;;;342993;28;84045;-89